createdAt,value
2018-12-02T00:00:20.431Z,91.10
2018-12-02T00:02:48.963Z,91.10
2018-12-02T00:05:17.396Z,91.10
2018-12-02T00:07:45.820Z,91.10
2018-12-02T00:10:15.250Z,91.10
2018-12-02T00:12:43.623Z,91.10
2018-12-02T00:15:15.064Z,91.10
2018-12-02T00:17:43.474Z,91.10
2018-12-02T00:20:12.924Z,91.10
2018-12-02T00:22:41.380Z,91.10
2018-12-02T00:25:11.911Z,91.10
2018-12-02T00:27:40.791Z,91.10
2018-12-02T00:30:17.317Z,91.20
2018-12-02T00:32:45.870Z,91.20
2018-12-02T00:35:15.270Z,91.20
2018-12-02T00:37:44.835Z,91.20
2018-12-02T00:40:16.270Z,91.30
2018-12-02T00:42:57.285Z,91.30
2018-12-02T00:45:28.748Z,91.30
2018-12-02T00:47:57.141Z,91.30
2018-12-02T00:50:25.546Z,91.30
2018-12-02T00:52:56.249Z,91.30
2018-12-02T00:55:27.982Z,91.30
2018-12-02T00:57:56.395Z,91.30
2018-12-02T01:00:24.824Z,91.30
2018-12-02T01:02:53.231Z,91.30
2018-12-02T01:05:22.490Z,91.30
2018-12-02T01:07:51.138Z,91.30
2018-12-02T01:10:22.446Z,91.30
2018-12-02T01:12:52.911Z,91.30
2018-12-02T01:15:24.669Z,91.30
2018-12-02T01:17:53.121Z,91.20
2018-12-02T01:20:22.409Z,91.20
2018-12-02T01:22:50.899Z,91.20
2018-12-02T01:25:19.329Z,91.20
2018-12-02T01:27:47.853Z,91.20
2018-12-02T01:30:21.123Z,91.10
2018-12-02T01:32:50.328Z,91.10
2018-12-02T01:35:19.131Z,91.10
2018-12-02T01:37:47.583Z,91.00
2018-12-02T01:40:17.913Z,91.00
2018-12-02T01:42:46.391Z,91.00
2018-12-02T01:45:18.662Z,91.00
2018-12-02T01:47:47.132Z,91.00
2018-12-02T01:50:19.632Z,91.00
2018-12-02T01:52:49.247Z,91.00
2018-12-02T01:55:17.669Z,91.00
2018-12-02T01:57:46.135Z,91.00
2018-12-02T02:00:19.886Z,91.00
2018-12-02T02:02:48.733Z,91.00
2018-12-02T02:05:18.286Z,90.90
2018-12-02T02:07:46.672Z,90.90
2018-12-02T02:10:18.929Z,90.90
2018-12-02T02:12:47.333Z,90.80
2018-12-02T02:15:17.544Z,90.80
2018-12-02T02:17:45.801Z,90.80
2018-12-02T02:20:21.838Z,90.70
2018-12-02T02:22:50.208Z,90.70
2018-12-02T02:25:19.718Z,90.70
2018-12-02T02:27:52.607Z,90.70
2018-12-02T02:30:22.127Z,90.70
2018-12-02T02:32:50.573Z,90.80
2018-12-02T02:35:20.087Z,90.80
2018-12-02T02:37:49.189Z,90.90
2018-12-02T02:40:18.554Z,90.90
2018-12-02T02:42:47.005Z,90.90
2018-12-02T06:41:21.720Z,85.80
2018-12-02T06:43:50.101Z,83.70
2018-12-02T06:46:18.482Z,83.30
2018-12-02T06:48:46.884Z,83.80
2018-12-02T06:51:15.275Z,83.40
2018-12-02T06:53:43.651Z,83.70
2018-12-02T06:56:15.528Z,83.60
2018-12-02T06:58:55.111Z,82.30
2018-12-02T07:01:33.656Z,82.80
2018-12-02T07:04:12.830Z,84.00
2018-12-02T07:06:41.266Z,83.90
2018-12-02T07:09:09.640Z,83.70
2018-12-02T07:11:38.040Z,83.60
2018-12-02T07:14:06.549Z,84.40
2018-12-02T07:16:34.913Z,81.90
2018-12-02T07:19:07.217Z,81.70
2018-12-02T07:21:37.542Z,80.60
2018-12-02T07:24:07.147Z,80.60
2018-12-02T07:26:37.697Z,79.80
2018-12-02T07:29:06.341Z,79.70
2018-12-02T07:31:34.745Z,79.70
2018-12-02T07:34:03.163Z,81.60
2018-12-02T07:36:31.542Z,82.20
2018-12-02T07:39:10.332Z,80.00
2018-12-02T07:41:38.820Z,80.00
2018-12-02T07:44:07.225Z,81.50
2018-12-02T07:46:35.608Z,82.50
2018-12-02T07:49:04.025Z,82.90
2018-12-02T07:51:32.413Z,83.80
2018-12-02T07:54:00.825Z,84.70
2018-12-02T07:56:29.185Z,85.60
2018-12-02T07:58:57.589Z,86.40
2018-12-02T08:01:26.194Z,87.60
2018-12-02T08:03:54.605Z,87.70
2018-12-02T08:06:22.992Z,87.30
2018-12-02T08:08:51.412Z,88.40
2018-12-02T08:11:19.799Z,89.10
2018-12-02T08:13:48.161Z,88.20
2018-12-02T08:16:16.699Z,87.70
2018-12-02T08:18:45.079Z,87.20
2018-12-02T08:21:13.484Z,87.00
2018-12-02T08:23:41.858Z,86.60
2018-12-02T08:26:10.267Z,86.60
2018-12-02T08:28:38.670Z,86.80
2018-12-02T08:31:07.062Z,87.10
2018-12-02T08:33:35.448Z,87.20
2018-12-02T08:36:03.854Z,87.50
2018-12-02T08:38:32.256Z,88.10
2018-12-02T08:41:00.647Z,88.60
2018-12-02T08:43:29.017Z,89.10
2018-12-02T08:45:57.470Z,89.40
2018-12-02T08:48:25.866Z,89.50
2018-12-02T08:50:54.257Z,89.00
2018-12-02T08:53:22.625Z,88.60
2018-12-02T08:55:51.027Z,89.20
2018-12-02T08:58:19.429Z,89.60
2018-12-02T09:00:47.830Z,89.70
2018-12-02T09:03:16.248Z,89.50
2018-12-02T09:05:44.651Z,89.30
2018-12-02T09:08:13.085Z,89.60
2018-12-02T09:10:42.074Z,88.20
2018-12-02T09:13:10.679Z,87.60
2018-12-02T09:15:39.066Z,88.00
2018-12-02T09:18:09.354Z,88.30
2018-12-02T09:20:37.775Z,87.00
2018-12-02T09:23:08.044Z,85.60
2018-12-02T09:25:36.594Z,85.40
2018-12-02T09:28:05.433Z,85.40
2018-12-02T09:30:34.943Z,73.30
2018-12-02T09:33:03.394Z,74.30
2018-12-02T09:35:31.851Z,75.30
2018-12-02T09:38:00.306Z,75.80
2018-12-02T09:40:28.667Z,76.10
2018-12-02T09:42:57.097Z,76.60
2018-12-02T09:45:27.367Z,77.20
2018-12-02T09:47:57.234Z,77.70
2018-12-02T09:50:25.622Z,77.50
2018-12-02T09:52:54.018Z,78.70
2018-12-02T09:55:34.203Z,79.20
2018-12-02T09:58:02.619Z,79.90
2018-12-02T10:00:34.123Z,80.50
2018-12-02T10:02:59.475Z,81.20
2018-12-02T10:05:27.904Z,81.50
2018-12-02T10:07:56.411Z,81.40
2018-12-02T10:10:24.834Z,81.50
2018-12-02T10:12:57.620Z,81.40
2018-12-02T10:15:26.188Z,81.30
2018-12-02T10:17:54.635Z,81.10
2018-12-02T10:20:23.031Z,80.60
2018-12-02T10:22:51.413Z,80.20
2018-12-02T10:25:20.052Z,79.90
2018-12-02T10:27:48.538Z,80.20
2018-12-02T10:30:21.890Z,80.90
2018-12-02T10:32:51.099Z,81.00
2018-12-02T10:35:19.585Z,80.80
2018-12-02T10:37:48.581Z,80.40
2018-12-02T10:40:23.400Z,79.90
2018-12-02T10:42:54.318Z,79.60
2018-12-02T10:45:27.740Z,80.10
2018-12-02T10:51:01.049Z,80.40
2018-12-02T10:53:35.837Z,80.40
2018-12-02T10:56:06.698Z,80.60
2018-12-02T10:58:36.500Z,81.00
2018-12-02T11:01:11.142Z,81.10
2018-12-02T11:03:39.535Z,81.30
2018-12-02T11:06:07.994Z,81.50
2018-12-02T11:08:36.431Z,81.80
2018-12-02T11:11:05.104Z,80.90
2018-12-02T11:13:33.537Z,81.10
2018-12-02T11:16:01.948Z,81.30
2018-12-02T11:18:30.363Z,80.00
2018-12-02T11:20:58.762Z,79.50
2018-12-02T11:23:27.207Z,80.10
2018-12-02T11:25:55.572Z,80.40
2018-12-02T11:28:24.010Z,79.40
2018-12-02T11:30:52.401Z,80.10
2018-12-02T11:33:20.803Z,80.10
2018-12-02T11:35:49.328Z,80.50
2018-12-02T11:38:17.702Z,80.30
2018-12-02T11:40:46.111Z,80.60
2018-12-02T11:43:14.714Z,80.80
2018-12-02T11:45:43.117Z,80.90
2018-12-02T11:48:11.540Z,81.80
2018-12-02T11:50:40.019Z,81.70
2018-12-02T11:53:08.494Z,81.40
2018-12-02T11:55:36.914Z,81.60
2018-12-02T11:58:05.800Z,81.40
2018-12-02T12:00:35.737Z,80.50
2018-12-02T12:03:04.187Z,80.40
2018-12-02T12:05:32.592Z,80.40
2018-12-02T12:08:01.030Z,80.90
2018-12-02T12:10:29.591Z,81.00
2018-12-02T12:12:59.218Z,81.50
2018-12-02T12:15:28.594Z,81.40
2018-12-02T12:17:57.834Z,81.40
2018-12-02T12:20:28.309Z,81.60
2018-12-02T12:22:57.009Z,81.40
2018-12-02T12:25:25.649Z,81.00
2018-12-02T12:27:55.169Z,80.70
2018-12-02T12:30:24.861Z,79.40
2018-12-02T12:32:53.870Z,77.90
2018-12-02T12:35:22.812Z,78.30
2018-12-02T12:37:51.238Z,78.80
2018-12-02T12:40:30.718Z,79.50
2018-12-02T12:43:03.285Z,80.20
2018-12-02T12:45:31.741Z,80.50
2018-12-02T12:48:00.191Z,80.20
2018-12-02T12:50:28.593Z,80.60
2018-12-02T12:52:57.000Z,80.80
2018-12-02T12:55:25.495Z,81.30
2018-12-02T12:57:54.023Z,81.00
2018-12-02T13:00:23.298Z,80.70
2018-12-02T13:02:52.329Z,80.20
2018-12-02T13:05:21.838Z,79.70
2018-12-02T13:07:50.537Z,79.30
2018-12-02T13:10:19.344Z,78.80
2018-12-02T13:12:47.775Z,78.50
2018-12-02T13:15:21.049Z,78.00
2018-12-02T13:18:06.564Z,79.00
2018-12-02T13:20:40.467Z,78.60
2018-12-02T13:23:08.916Z,79.10
2018-12-02T13:25:37.331Z,79.40
2018-12-02T13:28:06.686Z,79.10
2018-12-02T13:30:35.282Z,78.00
2018-12-02T13:33:03.774Z,78.00
2018-12-02T13:35:32.193Z,78.90
2018-12-02T13:38:00.616Z,79.20
2018-12-02T13:40:29.028Z,79.20
2018-12-02T13:42:58.910Z,79.20
2018-12-02T13:45:28.348Z,79.70
2018-12-02T13:47:56.728Z,79.50
2018-12-02T13:50:25.181Z,80.00
2018-12-02T13:52:54.987Z,79.40
2018-12-02T13:55:24.883Z,78.60
2018-12-02T13:57:53.296Z,78.30
2018-12-02T14:00:25.693Z,79.30
2018-12-02T14:02:57.504Z,78.70
2018-12-02T14:05:25.942Z,78.60
2018-12-02T14:07:54.480Z,78.20
2018-12-02T14:10:22.913Z,78.50
2018-12-02T14:13:02.431Z,78.70
2018-12-02T14:15:38.373Z,78.70
2018-12-02T14:18:40.563Z,78.50
2018-12-02T14:21:09.284Z,78.50
2018-12-02T14:23:39.076Z,79.10
2018-12-02T14:26:10.315Z,79.80
2018-12-02T14:28:51.847Z,80.90
2018-12-02T14:31:20.694Z,81.40
2018-12-02T14:33:49.157Z,81.40
2018-12-02T14:36:17.558Z,82.20
2018-12-02T14:38:46.012Z,82.70
2018-12-02T14:41:14.418Z,82.00
2018-12-02T14:43:43.715Z,81.90
2018-12-02T14:46:12.120Z,80.40
2018-12-02T14:51:15.387Z,80.80
2018-12-02T14:53:43.811Z,81.40
2018-12-02T14:56:12.224Z,81.50
2018-12-02T14:58:41.290Z,81.60
2018-12-02T15:01:09.685Z,82.30
2018-12-02T15:03:38.213Z,82.80
2018-12-02T15:06:06.614Z,83.00
2018-12-02T15:08:35.129Z,82.90
2018-12-02T15:11:03.517Z,83.40
2018-12-02T15:13:31.913Z,83.70
2018-12-02T15:16:00.339Z,84.10
2018-12-02T15:18:28.808Z,84.40
2018-12-02T15:20:58.346Z,84.70
2018-12-02T15:23:25.704Z,84.50
2018-12-02T15:25:54.225Z,84.60
2018-12-02T15:28:22.615Z,84.70
2018-12-02T15:30:51.041Z,84.70
2018-12-02T15:33:19.482Z,84.90
2018-12-02T15:35:47.911Z,84.80
2018-12-02T15:38:16.325Z,85.00
2018-12-02T15:40:44.772Z,84.80
2018-12-02T15:43:13.229Z,84.70
2018-12-02T15:45:41.647Z,84.40
2018-12-02T15:48:10.050Z,84.20
2018-12-02T15:50:38.442Z,84.10
2018-12-02T15:53:06.895Z,84.10
2018-12-02T15:55:36.023Z,84.40
2018-12-02T15:58:07.450Z,85.00
2018-12-02T16:00:37.663Z,85.20
2018-12-02T16:03:06.492Z,85.40
2018-12-02T16:05:34.912Z,85.50
2018-12-02T16:08:03.341Z,85.60
2018-12-02T16:10:31.833Z,85.70
2018-12-02T16:13:00.287Z,86.00
2018-12-02T16:15:31.353Z,86.00
2018-12-02T16:17:59.757Z,86.00
2018-12-02T16:20:33.283Z,86.10
2018-12-02T16:23:01.750Z,86.10
2018-12-02T16:25:30.190Z,86.00
2018-12-02T16:27:58.636Z,86.10
2018-12-02T16:30:27.062Z,86.00
2018-12-02T16:32:55.543Z,86.20
2018-12-02T16:35:24.802Z,86.40
2018-12-02T16:37:54.603Z,86.20
2018-12-02T16:40:24.312Z,86.30
2018-12-02T16:42:54.726Z,86.30
2018-12-02T16:45:23.379Z,86.30
2018-12-02T16:47:53.146Z,86.30
2018-12-02T16:50:26.792Z,86.20
2018-12-02T16:52:56.766Z,86.20
2018-12-02T16:55:28.011Z,86.20
2018-12-02T16:57:59.922Z,86.30
2018-12-02T17:00:32.665Z,86.40
2018-12-02T17:03:01.082Z,86.40
2018-12-02T17:05:29.959Z,86.40
2018-12-02T17:07:58.413Z,86.40
2018-12-02T17:10:26.805Z,86.30
2018-12-02T17:12:55.194Z,86.20
2018-12-02T17:15:23.627Z,86.20
2018-12-02T17:17:52.024Z,86.40
2018-12-02T17:20:20.418Z,86.40
2018-12-02T17:22:48.805Z,86.50
2018-12-02T17:25:17.222Z,86.30
2018-12-02T17:27:46.182Z,86.20
2018-12-02T17:30:17.738Z,86.20
2018-12-02T17:32:46.131Z,86.30
2018-12-02T17:35:14.712Z,86.40
2018-12-02T17:37:43.088Z,86.50
2018-12-02T17:40:17.567Z,86.40
2018-12-02T17:42:45.954Z,86.30
2018-12-02T17:45:14.382Z,86.20
2018-12-02T17:47:42.832Z,86.20
2018-12-02T17:50:15.808Z,86.20
2018-12-02T17:52:45.988Z,86.00
2018-12-02T17:55:14.447Z,85.80
2018-12-02T17:57:42.883Z,85.50
2018-12-02T18:00:15.807Z,85.20
2018-12-02T18:02:44.176Z,85.00
2018-12-02T18:05:14.322Z,84.90
2018-12-02T18:07:42.854Z,84.80
2018-12-02T18:10:13.679Z,84.70
2018-12-02T18:12:42.812Z,84.20
2018-12-02T18:15:12.593Z,83.80
2018-12-02T18:17:41.052Z,83.60
2018-12-02T18:20:12.653Z,83.40
2018-12-02T18:22:41.194Z,83.40
2018-12-02T18:25:11.837Z,83.10
2018-12-02T18:27:40.284Z,83.40
2018-12-02T18:30:17.609Z,83.70
2018-12-02T18:32:46.502Z,83.80
2018-12-02T18:35:19.495Z,84.20
2018-12-02T18:37:48.274Z,84.40
2018-12-02T18:40:16.750Z,84.40
2018-12-02T18:42:45.442Z,84.70
2018-12-02T18:45:13.915Z,84.70
2018-12-02T18:47:42.335Z,84.70
2018-12-02T18:50:12.023Z,84.40
2018-12-02T18:52:40.472Z,84.20
2018-12-02T18:55:10.976Z,84.20
2018-12-02T18:57:40.099Z,84.20
2018-12-02T19:00:22.065Z,84.30
2018-12-02T19:02:52.376Z,84.30
2018-12-02T19:05:20.796Z,84.10
2018-12-02T19:07:49.235Z,84.30
2018-12-02T19:10:19.536Z,84.30
2018-12-02T19:12:47.975Z,84.50
2018-12-02T19:15:16.457Z,84.50
2018-12-02T19:17:45.427Z,84.60
2018-12-02T19:20:19.043Z,84.30
2018-12-02T19:22:48.764Z,84.20
2018-12-02T19:25:18.657Z,84.20
2018-12-02T19:27:47.067Z,84.20
2018-12-02T19:30:16.670Z,84.70
2018-12-02T19:32:45.802Z,84.70
2018-12-02T19:35:22.141Z,84.50
2018-12-02T19:37:52.108Z,84.30
2018-12-02T19:40:20.551Z,84.30
2018-12-02T19:42:48.972Z,84.00
2018-12-02T19:45:18.835Z,83.90
2018-12-02T19:47:47.250Z,83.60
2018-12-02T19:50:18.685Z,83.70
2018-12-02T19:52:50.071Z,83.60
2018-12-02T19:55:18.459Z,84.10
2018-12-02T19:57:48.581Z,84.20
2018-12-02T20:00:24.413Z,84.50
2018-12-02T20:02:52.910Z,84.90
2018-12-02T20:05:21.515Z,85.40
2018-12-02T20:07:53.486Z,86.00
2018-12-02T20:10:23.826Z,86.10
2018-12-02T20:12:52.257Z,86.30
2018-12-02T20:15:20.683Z,86.20
2018-12-02T20:17:49.114Z,86.30
2018-12-02T20:20:24.840Z,86.30
2018-12-02T20:22:53.770Z,86.30
2018-12-02T20:25:23.786Z,86.30
2018-12-02T20:27:55.405Z,86.30
2018-12-02T20:30:24.545Z,86.40
2018-12-02T20:32:53.087Z,86.50
2018-12-02T20:35:21.532Z,86.40
2018-12-02T20:37:49.980Z,86.30
2018-12-02T20:40:19.754Z,86.40
2018-12-02T20:42:49.050Z,86.40
2018-12-02T20:45:18.103Z,86.10
2018-12-02T20:47:46.543Z,86.00
2018-12-02T20:50:16.150Z,86.10
2018-12-02T20:52:45.029Z,86.10
2018-12-02T20:55:15.511Z,85.90
2018-12-02T20:57:43.909Z,85.90
2018-12-02T21:00:15.464Z,85.70
2018-12-02T21:02:46.122Z,85.70
2018-12-02T21:05:19.068Z,85.60
2018-12-02T21:07:47.499Z,85.80
2018-12-02T21:10:15.944Z,85.90
2018-12-02T21:12:44.388Z,85.90
2018-12-02T21:15:14.029Z,85.80
2018-12-02T21:17:42.439Z,85.70
2018-12-02T21:20:12.183Z,85.50
2018-12-02T21:22:40.605Z,85.40
2018-12-02T21:25:12.781Z,85.30
2018-12-02T21:27:41.215Z,85.20
2018-12-02T21:30:12.499Z,85.00
2018-12-02T21:32:40.926Z,84.70
2018-12-02T21:35:09.382Z,85.00
2018-12-02T21:37:37.791Z,85.00
2018-12-02T21:40:09.989Z,85.10
2018-12-02T21:42:38.385Z,85.40
2018-12-02T21:45:08.443Z,85.40
2018-12-02T21:47:36.974Z,85.60
2018-12-02T21:50:12.912Z,85.80
2018-12-02T21:52:41.332Z,85.90
2018-12-02T21:55:09.730Z,86.20
2018-12-02T21:57:38.109Z,86.30
2018-12-02T22:00:15.747Z,86.20
2018-12-02T22:02:44.150Z,86.10
2018-12-02T22:05:12.546Z,86.00
2018-12-02T22:07:41.027Z,85.90
2018-12-02T22:10:13.004Z,85.80
2018-12-02T22:12:41.527Z,85.90
2018-12-02T22:15:09.983Z,85.90
2018-12-02T22:17:38.389Z,85.90
2018-12-02T22:20:09.834Z,86.00
2018-12-02T22:22:38.522Z,86.00
2018-12-02T22:25:16.635Z,85.90
2018-12-02T22:27:46.244Z,86.00
2018-12-02T22:30:16.721Z,86.10
2018-12-02T22:32:45.166Z,86.30
2018-12-02T22:35:14.419Z,86.20
2018-12-02T22:37:43.470Z,86.20
2018-12-02T22:40:18.873Z,86.20
2018-12-02T22:42:47.249Z,86.20
2018-12-02T22:45:17.982Z,86.20
2018-12-02T22:47:46.396Z,86.10
2018-12-02T22:50:16.926Z,85.70
2018-12-02T22:52:46.519Z,85.60
2018-12-02T22:55:14.950Z,85.70
2018-12-02T22:57:43.336Z,85.60
2018-12-02T23:00:19.073Z,85.50
2018-12-02T23:02:56.511Z,85.30
2018-12-02T23:05:24.905Z,85.40
2018-12-02T23:07:53.327Z,85.50
2018-12-02T23:10:21.737Z,85.80
2018-12-02T23:12:50.279Z,85.90
2018-12-02T23:15:18.833Z,85.90
2018-12-02T23:17:47.219Z,86.00
2018-12-02T23:20:15.590Z,86.30
2018-12-02T23:22:43.994Z,85.90
2018-12-02T23:25:19.713Z,85.90
2018-12-02T23:27:48.086Z,85.90
2018-12-02T23:30:21.690Z,85.80
2018-12-02T23:32:50.101Z,85.70
2018-12-02T23:35:18.499Z,85.70
2018-12-02T23:37:46.913Z,85.90
2018-12-02T23:40:17.354Z,85.90
2018-12-02T23:42:45.806Z,85.70
2018-12-02T23:45:15.019Z,85.40
2018-12-02T23:47:43.458Z,85.50
2018-12-02T23:50:16.602Z,85.20
2018-12-02T23:52:45.196Z,84.70
2018-12-02T23:55:15.210Z,84.80
2018-12-02T23:57:43.724Z,85.20
